createdAt,value
2023-05-10T00:03:05.831Z,5.28
2023-05-10T00:08:02.366Z,5.20
2023-05-10T00:12:59.184Z,5.18
2023-05-10T00:17:56.015Z,5.30
2023-05-10T00:22:52.477Z,5.20
2023-05-10T00:27:50.695Z,5.50
2023-05-10T00:32:49.065Z,5.20
2023-05-10T00:37:46.046Z,5.20
2023-05-10T00:42:42.566Z,5.53
2023-05-10T00:47:40.090Z,5.13
2023-05-10T00:52:36.695Z,5.43
2023-05-10T00:57:33.482Z,5.22
2023-05-10T01:02:29.901Z,5.18
2023-05-10T01:07:26.490Z,4.95
2023-05-10T01:12:23.422Z,5.03
2023-05-10T01:17:20.863Z,6.25
2023-05-10T01:22:46.396Z,5.40
2023-05-10T01:27:51.529Z,5.40
2023-05-10T01:33:00.760Z,5.03
2023-05-10T01:37:57.126Z,5.43
2023-05-10T01:42:57.433Z,5.35
2023-05-10T01:48:00.214Z,5.65
2023-05-10T01:53:00.226Z,4.95
2023-05-10T01:58:06.816Z,5.00
2023-05-10T02:03:08.236Z,5.55
2023-05-10T02:08:07.681Z,5.93
2023-05-10T02:13:04.964Z,5.40
2023-05-10T02:18:03.524Z,5.53
2023-05-10T02:23:01.839Z,5.32
2023-05-10T02:28:00.978Z,5.70
2023-05-10T02:32:58.211Z,5.55
2023-05-10T02:37:55.617Z,5.72
2023-05-10T02:42:55.545Z,5.65
2023-05-10T02:47:52.132Z,5.47
2023-05-10T02:52:55.082Z,5.72
2023-05-10T02:58:00.879Z,5.78
2023-05-10T03:02:59.806Z,5.47
2023-05-10T03:07:56.579Z,6.05
2023-05-10T03:13:29.280Z,5.53
2023-05-10T03:18:28.550Z,6.30
2023-05-10T03:23:34.613Z,5.40
2023-05-10T03:28:32.539Z,5.65
2023-05-10T03:46:18.064Z,5.35
2023-05-10T03:51:15.599Z,5.82
2023-05-10T03:56:12.147Z,5.82
2023-05-10T04:01:08.789Z,5.30
2023-05-10T04:06:06.326Z,6.40
2023-05-10T04:11:13.595Z,5.70
2023-05-10T04:16:10.212Z,6.25
2023-05-10T04:21:13.198Z,5.82
2023-05-10T04:26:09.790Z,6.15
2023-05-10T04:31:08.796Z,6.30
2023-05-10T04:36:15.061Z,6.45
2023-05-10T04:41:12.544Z,5.72
2023-05-10T04:46:09.019Z,6.03
2023-05-10T04:51:07.310Z,6.25
2023-05-10T04:56:04.069Z,6.15
2023-05-10T05:01:08.384Z,6.47
2023-05-10T05:06:04.933Z,6.40
2023-05-10T05:11:01.572Z,6.57
2023-05-10T05:15:58.065Z,6.93
2023-05-10T05:20:54.548Z,6.60
2023-05-10T05:25:52.657Z,6.43
2023-05-10T05:30:49.118Z,6.53
2023-05-10T05:35:51.481Z,6.80
2023-05-10T05:40:47.916Z,7.30
2023-05-10T05:45:44.441Z,7.82
2023-05-10T05:50:40.977Z,7.50
2023-05-10T05:55:38.444Z,7.65
2023-05-10T06:00:35.196Z,6.97
2023-05-10T06:05:31.626Z,6.97
2023-05-10T06:10:28.058Z,7.35
2023-05-10T06:15:24.503Z,7.22
2023-05-10T06:20:21.012Z,7.57
2023-05-10T06:25:19.012Z,7.25
2023-05-10T06:30:16.142Z,7.55
2023-05-10T06:35:12.587Z,7.40
2023-05-10T06:40:10.176Z,8.50
2023-05-10T06:45:07.380Z,7.35
2023-05-10T06:50:04.181Z,7.50
2023-05-10T06:55:01.189Z,7.40
2023-05-10T06:59:57.913Z,6.78
2023-05-10T07:04:54.950Z,8.10
2023-05-10T07:09:52.147Z,8.02
2023-05-10T07:14:48.647Z,7.80
2023-05-10T07:19:45.083Z,8.25
2023-05-10T07:24:41.768Z,7.60
2023-05-10T07:29:38.406Z,7.88
2023-05-10T07:34:37.702Z,8.60
2023-05-10T07:39:34.088Z,8.40
2023-05-10T07:44:30.610Z,8.48
2023-05-10T07:49:27.109Z,8.45
2023-05-10T07:54:23.676Z,9.20
2023-05-10T07:59:20.227Z,8.48
2023-05-10T08:04:17.045Z,8.50
2023-05-10T08:09:14.226Z,8.40
2023-05-10T08:14:10.750Z,8.52
2023-05-10T08:19:07.371Z,8.90
2023-05-10T08:24:03.914Z,8.75
2023-05-10T08:29:00.365Z,8.77
2023-05-10T08:33:56.833Z,8.65
2023-05-10T08:38:53.860Z,8.30
2023-05-10T08:43:51.640Z,7.43
2023-05-10T08:48:51.289Z,8.05
2023-05-10T08:53:48.437Z,7.43
2023-05-10T08:58:45.378Z,7.53
2023-05-10T09:03:42.102Z,7.13
2023-05-10T09:08:38.635Z,7.70
2023-05-10T09:13:37.200Z,7.55
2023-05-10T09:18:34.259Z,7.82
2023-05-10T09:23:33.202Z,7.55
2023-05-10T09:28:33.327Z,7.80
2023-05-10T09:33:29.844Z,7.28
2023-05-10T09:38:26.292Z,7.47
2023-05-10T09:43:22.700Z,7.53
2023-05-10T09:48:19.112Z,7.47
2023-05-10T09:53:16.801Z,7.78
2023-05-10T09:58:15.319Z,7.82
2023-05-10T10:03:16.605Z,9.05
2023-05-10T10:08:13.856Z,9.55
2023-05-10T10:13:11.385Z,9.40
2023-05-10T10:18:12.534Z,9.52
2023-05-10T10:23:09.469Z,9.15
2023-05-10T10:28:52.833Z,10.63
2023-05-10T10:33:57.903Z,9.90
2023-05-10T10:39:02.085Z,12.15
2023-05-10T10:44:23.653Z,10.82
2023-05-10T10:49:20.060Z,11.45
2023-05-10T10:54:29.103Z,12.23
2023-05-10T10:59:37.665Z,10.88
2023-05-10T11:04:48.168Z,11.18
2023-05-10T11:09:44.714Z,11.48
2023-05-10T11:14:41.199Z,11.20
2023-05-10T11:19:39.956Z,12.18
2023-05-10T11:24:36.724Z,11.68
2023-05-10T11:29:33.239Z,10.88
2023-05-10T11:34:31.379Z,11.90
2023-05-10T11:39:29.463Z,11.88
2023-05-10T11:44:33.172Z,11.85
2023-05-10T11:49:30.198Z,12.73
2023-05-10T11:54:26.656Z,13.75
2023-05-10T11:59:23.069Z,12.15
2023-05-10T12:04:20.144Z,13.48
2023-05-10T12:09:19.257Z,12.23
2023-05-10T12:14:20.839Z,12.48
2023-05-10T12:19:23.719Z,13.20
2023-05-10T12:24:22.428Z,13.50
2023-05-10T12:29:19.965Z,14.10
2023-05-10T12:34:26.766Z,13.77
2023-05-10T12:39:23.851Z,12.05
2023-05-10T12:44:20.437Z,12.23
2023-05-10T12:49:17.701Z,14.25
2023-05-10T12:54:14.152Z,14.38
2023-05-10T12:59:10.605Z,13.10
2023-05-10T13:04:07.278Z,13.85
2023-05-10T13:09:03.761Z,11.05
2023-05-10T13:14:00.358Z,11.38
2023-05-10T13:18:56.992Z,12.27
2023-05-10T13:23:56.548Z,10.32
2023-05-10T13:28:53.022Z,10.57
2023-05-10T13:33:49.553Z,10.57
2023-05-10T13:38:46.550Z,10.40
2023-05-10T13:43:43.047Z,11.18
2023-05-10T13:48:39.487Z,10.55
2023-05-10T13:53:35.903Z,11.10
2023-05-10T13:58:32.367Z,12.05
2023-05-10T14:03:28.995Z,10.85
2023-05-10T14:08:25.524Z,10.43
2023-05-10T14:13:22.115Z,11.05
2023-05-10T14:18:18.647Z,10.73
2023-05-10T14:23:15.121Z,11.23
2023-05-10T14:28:13.129Z,10.82
2023-05-10T14:33:09.816Z,10.23
2023-05-10T14:38:06.244Z,10.45
2023-05-10T14:43:02.755Z,9.70
2023-05-10T14:47:59.241Z,9.52
2023-05-10T14:52:59.946Z,8.88
2023-05-10T14:57:56.408Z,9.98
2023-05-10T15:02:52.911Z,9.60
2023-05-10T15:07:49.914Z,10.00
2023-05-10T15:12:46.413Z,9.90
2023-05-10T15:17:42.899Z,10.00
2023-05-10T15:22:39.481Z,9.57
2023-05-10T15:27:36.324Z,9.30
2023-05-10T15:32:32.820Z,9.73
2023-05-10T15:37:29.328Z,9.13
2023-05-10T15:42:25.731Z,9.43
2023-05-10T15:47:22.298Z,9.05
2023-05-10T15:52:19.279Z,9.00
2023-05-10T15:57:16.025Z,9.00
2023-05-10T16:02:12.559Z,8.63
2023-05-10T16:07:11.479Z,10.20
2023-05-10T16:12:08.283Z,9.15
2023-05-10T16:17:05.014Z,9.18
2023-05-10T16:22:03.260Z,10.00
2023-05-10T16:26:59.696Z,10.43
2023-05-10T16:31:56.096Z,11.88
2023-05-10T16:36:53.625Z,11.68
2023-05-10T16:41:50.102Z,11.00
2023-05-10T16:46:47.019Z,11.43
2023-05-10T16:51:43.677Z,12.10
2023-05-10T16:56:40.132Z,11.65
2023-05-10T17:01:36.806Z,11.27
2023-05-10T17:06:33.371Z,11.52
2023-05-10T17:11:30.086Z,10.85
2023-05-10T17:16:27.281Z,11.95
2023-05-10T17:21:23.695Z,10.73
2023-05-10T17:26:20.148Z,10.05
2023-05-10T17:31:16.981Z,10.65
2023-05-10T17:36:13.413Z,9.85
2023-05-10T17:41:10.064Z,10.75
2023-05-10T17:46:06.498Z,9.82
2023-05-10T17:51:04.208Z,10.23
2023-05-10T17:56:01.547Z,10.85
2023-05-10T18:00:58.111Z,11.45
2023-05-10T18:05:55.242Z,11.93
2023-05-10T18:10:56.319Z,11.50
2023-05-10T18:15:53.411Z,11.63
2023-05-10T18:20:56.452Z,11.30
2023-05-10T18:25:53.291Z,11.40
2023-05-10T18:30:51.038Z,11.93
2023-05-10T18:35:51.466Z,11.77
2023-05-10T18:40:47.949Z,13.82
2023-05-10T18:45:47.131Z,12.90
2023-05-10T18:50:43.704Z,10.70
2023-05-10T18:55:40.159Z,11.05
2023-05-10T19:00:36.691Z,11.68
2023-05-10T19:05:33.208Z,12.13
2023-05-10T19:10:29.641Z,11.75
2023-05-10T19:15:26.130Z,12.57
2023-05-10T19:20:23.070Z,11.98
2023-05-10T19:25:20.268Z,11.20
2023-05-10T19:30:16.856Z,11.30
2023-05-10T19:35:14.910Z,11.07
2023-05-10T19:40:18.354Z,10.25
2023-05-10T19:45:15.922Z,10.13
2023-05-10T19:50:17.150Z,8.90
2023-05-10T19:55:24.793Z,10.32
2023-05-10T20:00:21.624Z,9.00
2023-05-10T20:05:18.358Z,9.50
2023-05-10T20:10:15.748Z,9.82
2023-05-10T20:15:12.228Z,10.80
2023-05-10T20:20:08.881Z,10.25
2023-05-10T20:25:05.862Z,10.43
2023-05-10T20:30:02.436Z,10.27
2023-05-10T20:34:59.015Z,11.13
2023-05-10T20:39:55.582Z,10.57
2023-05-10T20:44:52.394Z,11.02
2023-05-10T20:49:49.215Z,11.35
2023-05-10T20:54:45.728Z,12.23
2023-05-10T20:59:42.876Z,12.57
2023-05-10T21:04:39.360Z,12.07
2023-05-10T21:09:35.811Z,12.95
2023-05-10T21:14:32.343Z,13.32
2023-05-10T21:19:28.732Z,12.32
2023-05-10T21:24:25.209Z,13.18
2023-05-10T21:29:21.702Z,14.05
2023-05-10T21:34:18.171Z,13.85
2023-05-10T21:39:16.919Z,15.02
2023-05-10T21:44:13.374Z,16.70
2023-05-10T21:49:09.854Z,16.10
2023-05-10T21:54:13.416Z,16.52
2023-05-10T21:59:09.967Z,18.65
2023-05-10T22:04:06.420Z,16.08
2023-05-10T22:09:02.890Z,16.52
2023-05-10T22:13:59.333Z,17.50
2023-05-10T22:18:55.914Z,16.30
2023-05-10T22:23:52.409Z,13.82
2023-05-10T22:28:48.833Z,13.50
2023-05-10T22:33:45.301Z,14.63
2023-05-10T22:38:42.172Z,15.93
2023-05-10T22:43:38.878Z,13.75
2023-05-10T22:48:35.614Z,14.50
2023-05-10T22:53:32.034Z,15.90
2023-05-10T22:58:28.615Z,14.80
2023-05-10T23:03:25.507Z,15.88
2023-05-10T23:08:22.565Z,15.50
2023-05-10T23:13:22.049Z,17.92
2023-05-10T23:18:19.449Z,16.23
2023-05-10T23:23:16.615Z,17.52
2023-05-10T23:28:13.099Z,16.40
2023-05-10T23:33:09.586Z,17.17
2023-05-10T23:38:06.079Z,16.30
2023-05-10T23:43:02.549Z,17.33
2023-05-10T23:47:59.163Z,17.25
2023-05-10T23:52:55.642Z,18.55
2023-05-10T23:57:52.095Z,16.90
